Dallas Fort Worth International Airport
KDFW : now visible

Airfield :











YOU CAN JOIN US ON...

 
LOGIN :

Register | Disclaimer

   EN    FR    IT 

 









Legend :    VFR   Marginal VFR   IFR   Intensive IFR   Very Intensive IFR
Visi :
Ceiling :
>= 8 km
>= 3000ft
5 to 8 km
1000 to 3000 ft
1500m to 5 km
500 to 1000 ft
800 to 1500m
200 to 500 ft
< 800m
< 200 ft
Symbols :   Thunderstorms  Fog  Heavy snow  Heavy precipitations  Wind > 20 kt






- Airport Elevation : 607 ft
- IATA code : DFW


KDFW - Dallas Fort Worth International

CURRENT METAR :
  • 121613Z 01008KT 10SM BKN013 OVC018 14/12 A3026 RMK AO2 T01440122

EXPIRED METARs :
  • 121553Z 03006KT 10SM FEW011 BKN015 OVC021 15/12 A3025 RMK AO2 SLP241 T01500122
  • 121453Z 01011KT 10SM OVC009 14/12 A3024 RMK AO2 SLP238 60000 T01390117 51016
  • 121353Z 03012KT 8SM BKN009 OVC014 14/12 A3023 RMK AO2 DZE53 CIG 007V012 SLP235 P0000 T01390122

TAF KDFW
Valid from the 12 at 15:00 until the 13 at 18:00 UTC


121501Z 1215/1318 01011KT P6SM BKN009 OVC012
FM122000 02010KT P6SM BKN012
FM130300 03007KT P6SM BKN025
FM130900 03007KT P6SM BKN035
KZFW FIR / North America



MET'MAP, your aeronautical weather chart ! - Copyright ORBIFLY December 2007 - Disclaimer

ORBIFLY MET'MAP TEAM :

Programming & Development : Alexandra Zaïnal
Concept & original design : Baudouin d'Aumeries
Assistance for programming : Marc-Olivier Méhu
Technical & hardware support : Manuel Goepfert

Contact : metmap@orbifly.com




SOURCES & CREDITS :

   NOAA       Earth
Advisory